Time;durP1;ratioP1;P1;durP2;ratioP2;P2;SDS_P1;SDS_P2;PMS_P1;PMS_P2;Temp;Humidity;BMP_temperature;BMP_pressure;BME280_temperature;BME280_humidity;BME280_pressure;Samples;Min_cycle;Max_cycle;Signal;HPM_P1;HPM_P2
2022/05/22 00:00:53;;;;;;;4.53;2.70;;;13.80;99.90;;;;;;2088047;28;20029;-70
2022/05/22 00:01:54;;;;;;;5.20;2.92;;;13.80;99.90;;;;;;2085727;28;20116;-70
2022/05/22 00:02:55;;;;;;;6.03;2.90;;;13.80;99.90;;;;;;2087002;28;20079;-70
2022/05/22 00:03:55;;;;;;;6.00;2.70;;;13.80;99.90;;;;;;2086346;28;20076;-70
2022/05/22 00:04:56;;;;;;;7.43;2.70;;;13.80;99.90;;;;;;2084029;28;20017;-70
2022/05/22 00:05:56;;;;;;;4.13;2.65;;;13.80;99.90;;;;;;2085962;28;20095;-70
2022/05/22 00:06:57;;;;;;;5.47;2.80;;;13.80;99.90;;;;;;2086721;28;20021;-70
2022/05/22 00:07:58;;;;;;;7.72;3.10;;;13.80;99.90;;;;;;2088604;28;20097;-70
2022/05/22 00:08:58;;;;;;;5.57;2.90;;;13.80;99.90;;;;;;2081753;28;20030;-70
2022/05/22 00:10:01;;;;;;;8.70;2.80;;;13.80;99.90;;;;;;2085057;28;20041;-70
2022/05/22 00:11:01;;;;;;;5.60;2.72;;;13.90;99.90;;;;;;2086906;28;20086;-70
2022/05/22 00:12:04;;;;;;;6.55;2.95;;;13.90;99.90;;;;;;2086596;28;20638;-70
2022/05/22 00:13:06;;;;;;;3.42;2.40;;;13.90;99.90;;;;;;2080790;28;20051;-70
2022/05/22 00:14:07;;;;;;;4.05;2.70;;;13.90;99.90;;;;;;2085080;28;20134;-70
2022/05/22 00:15:10;;;;;;;5.53;2.42;;;13.90;99.90;;;;;;2084354;28;20124;-70
2022/05/22 00:17:30;;;;;;;5.43;2.88;;;13.90;99.90;;;;;;2087207;28;20026;-70
2022/05/22 00:18:30;;;;;;;7.32;2.55;;;13.90;99.90;;;;;;2087522;28;20037;-70
2022/05/22 00:19:33;;;;;;;4.30;2.50;;;13.90;99.90;;;;;;2089127;28;20465;-70
2022/05/22 00:20:34;;;;;;;6.10;2.92;;;13.90;99.90;;;;;;2088558;28;20489;-70
2022/05/22 00:21:36;;;;;;;7.07;2.70;;;13.90;99.90;;;;;;2090342;28;20396;-70
2022/05/22 00:22:37;;;;;;;6.82;3.15;;;13.90;99.90;;;;;;2087757;28;20049;-70
2022/05/22 00:23:38;;;;;;;5.72;2.80;;;13.90;99.90;;;;;;2082520;28;20476;-70
2022/05/22 00:24:39;;;;;;;6.40;2.90;;;13.90;99.90;;;;;;2088101;28;20017;-70
2022/05/22 00:25:39;;;;;;;4.55;2.70;;;13.90;99.90;;;;;;2088393;28;20020;-70
2022/05/22 00:26:40;;;;;;;5.47;2.60;;;13.90;99.90;;;;;;2086106;28;20071;-70
2022/05/22 00:27:42;;;;;;;6.53;2.90;;;13.90;99.90;;;;;;2084831;28;20055;-70
2022/05/22 00:28:42;;;;;;;10.82;3.13;;;13.90;99.90;;;;;;2084223;28;20567;-70
2022/05/22 00:29:43;;;;;;;5.45;2.17;;;13.90;99.90;;;;;;2090315;28;20672;-70
2022/05/22 00:30:43;;;;;;;4.90;2.75;;;13.90;99.90;;;;;;2091136;28;20023;-70
2022/05/22 00:31:44;;;;;;;7.50;2.88;;;13.90;99.90;;;;;;2086963;28;20103;-70
2022/05/22 00:32:45;;;;;;;5.00;2.30;;;13.90;99.90;;;;;;2090224;28;20024;-70
2022/05/22 00:33:45;;;;;;;5.85;2.67;;;13.90;99.90;;;;;;2084784;28;20146;-70
2022/05/22 00:34:46;;;;;;;6.35;2.95;;;14.00;99.90;;;;;;2086801;28;20434;-70
2022/05/22 00:35:47;;;;;;;9.52;2.95;;;14.00;99.90;;;;;;2084856;28;20028;-70
2022/05/22 00:36:47;;;;;;;7.63;2.72;;;13.90;99.90;;;;;;2083573;28;20068;-70
2022/05/22 00:37:48;;;;;;;4.88;2.80;;;14.00;99.90;;;;;;2084742;28;20029;-70
2022/05/22 00:38:48;;;;;;;6.95;2.92;;;14.00;99.90;;;;;;2083953;28;20033;-70
2022/05/22 00:39:49;;;;;;;5.85;3.13;;;14.00;99.90;;;;;;2085423;28;20055;-70
2022/05/22 00:40:50;;;;;;;4.53;2.97;;;14.00;99.90;;;;;;2080819;28;20024;-70
2022/05/22 00:41:54;;;;;;;7.22;2.83;;;14.00;99.90;;;;;;2086598;28;20389;-70
2022/05/22 00:42:55;;;;;;;5.70;2.88;;;14.00;99.90;;;;;;2086085;28;20025;-70
2022/05/22 00:43:57;;;;;;;6.10;2.63;;;14.00;99.90;;;;;;2087265;28;20010;-70
2022/05/22 00:44:58;;;;;;;4.53;2.65;;;14.00;99.90;;;;;;2085351;28;20158;-70
2022/05/22 00:45:59;;;;;;;5.72;3.08;;;14.00;99.90;;;;;;2088697;28;20037;-70
2022/05/22 00:47:00;;;;;;;8.63;3.55;;;14.00;99.90;;;;;;2091065;28;20086;-70
2022/05/22 00:48:00;;;;;;;8.02;3.30;;;14.00;99.90;;;;;;2088702;28;20030;-70
2022/05/22 00:49:06;;;;;;;8.55;3.28;;;14.00;99.90;;;;;;2086885;28;20064;-70
2022/05/22 00:50:06;;;;;;;8.88;3.20;;;14.00;99.90;;;;;;2088312;28;20037;-70
2022/05/22 00:51:22;;;;;;;5.70;3.28;;;14.00;99.90;;;;;;2089060;28;20033;-70
2022/05/22 00:52:34;;;;;;;6.22;3.00;;;14.10;99.90;;;;;;2086595;28;20071;-70
2022/05/22 00:53:40;;;;;;;5.28;2.75;;;14.00;99.90;;;;;;2086703;28;20511;-70
2022/05/22 00:54:45;;;;;;;5.72;2.65;;;14.00;99.90;;;;;;2091885;28;20067;-70
2022/05/22 00:55:46;;;;;;;6.38;3.20;;;14.00;99.90;;;;;;2088584;28;20092;-70
2022/05/22 00:57:17;;;;;;;4.75;2.40;;;14.00;99.90;;;;;;2086858;28;20028;-70
2022/05/22 00:58:21;;;;;;;9.48;3.17;;;14.00;99.90;;;;;;2081054;28;20076;-70
2022/05/22 00:59:29;;;;;;;4.97;2.92;;;14.00;99.90;;;;;;2085374;28;20022;-70
2022/05/22 01:00:34;;;;;;;7.47;3.03;;;14.00;99.90;;;;;;2082685;28;20084;-70
2022/05/22 01:01:36;;;;;;;9.10;3.17;;;14.00;99.90;;;;;;2085112;28;20357;-70
2022/05/22 01:03:58;;;;;;;10.57;3.70;;;14.00;99.90;;;;;;2087050;28;20025;-70
2022/05/22 01:04:58;;;;;;;6.90;3.03;;;14.00;99.90;;;;;;2083904;28;20087;-70
2022/05/22 01:06:08;;;;;;;5.10;2.97;;;14.00;99.90;;;;;;2076046;28;20044;-70
2022/05/22 01:07:08;;;;;;;6.68;2.92;;;14.00;99.90;;;;;;2087149;28;20088;-70
2022/05/22 01:08:09;;;;;;;6.43;3.10;;;14.00;99.90;;;;;;2083031;28;20112;-70
2022/05/22 01:09:10;;;;;;;5.60;2.50;;;14.00;99.90;;;;;;2083508;28;20021;-70
2022/05/22 01:10:12;;;;;;;6.63;3.13;;;14.00;99.90;;;;;;2081147;28;20041;-70
2022/05/22 01:11:16;;;;;;;8.18;3.75;;;14.00;99.90;;;;;;2080680;28;20021;-70
2022/05/22 01:12:20;;;;;;;8.32;3.42;;;14.00;99.90;;;;;;2089395;28;20029;-70
2022/05/22 01:13:26;;;;;;;4.72;3.28;;;14.00;99.90;;;;;;2082385;28;20021;-70
2022/05/22 01:14:28;;;;;;;8.85;3.08;;;14.10;99.90;;;;;;2086864;28;20045;-70
2022/05/22 01:15:29;;;;;;;4.45;3.00;;;14.00;99.90;;;;;;2081764;28;20525;-70
2022/05/22 01:16:32;;;;;;;6.85;2.78;;;14.00;99.90;;;;;;2087543;28;20020;-70
2022/05/22 01:17:45;;;;;;;6.38;3.33;;;14.10;99.90;;;;;;2090093;28;20017;-70
2022/05/22 01:18:48;;;;;;;5.45;3.10;;;14.00;99.90;;;;;;2083841;28;20109;-70
2022/05/22 01:20:00;;;;;;;7.20;3.17;;;14.00;99.90;;;;;;2086405;28;20025;-70
2022/05/22 01:21:01;;;;;;;6.40;3.05;;;14.00;99.90;;;;;;2079187;28;20029;-70
2022/05/22 01:22:04;;;;;;;6.60;3.15;;;14.00;99.90;;;;;;2087010;28;20049;-70
2022/05/22 01:23:04;;;;;;;5.78;2.88;;;14.00;99.90;;;;;;2082482;28;20017;-70
2022/05/22 01:24:06;;;;;;;5.88;3.05;;;14.00;99.90;;;;;;2087396;28;20035;-70
2022/05/22 01:25:08;;;;;;;6.68;3.90;;;14.00;99.90;;;;;;2087755;28;20381;-70
2022/05/22 01:26:09;;;;;;;5.93;3.28;;;14.00;99.90;;;;;;2087734;28;20053;-70
2022/05/22 01:27:14;;;;;;;11.45;4.28;;;14.00;99.90;;;;;;2090154;28;20491;-70
2022/05/22 01:28:17;;;;;;;6.90;4.10;;;14.00;99.90;;;;;;2088599;28;20055;-70
2022/05/22 01:29:18;;;;;;;8.25;4.60;;;14.00;99.90;;;;;;2080894;28;20034;-70
2022/05/22 01:30:24;;;;;;;6.85;3.65;;;14.00;99.90;;;;;;2086630;28;20053;-70
2022/05/22 01:31:24;;;;;;;9.32;4.15;;;14.00;99.90;;;;;;2081760;28;20022;-70
2022/05/22 01:32:25;;;;;;;6.38;3.47;;;14.00;99.90;;;;;;2082538;28;20017;-70
2022/05/22 01:33:26;;;;;;;6.07;3.42;;;13.90;99.90;;;;;;2088971;28;20074;-70
2022/05/22 01:34:27;;;;;;;8.32;3.83;;;14.00;99.90;;;;;;2091112;28;20633;-70
2022/05/22 01:35:28;;;;;;;6.90;3.25;;;13.90;99.90;;;;;;2083541;28;21168;-70
2022/05/22 01:36:29;;;;;;;7.28;3.85;;;13.90;99.90;;;;;;2084534;28;20039;-70
2022/05/22 01:37:29;;;;;;;7.35;3.50;;;13.90;99.90;;;;;;2083136;28;20032;-70
2022/05/22 01:38:30;;;;;;;7.88;3.60;;;13.90;99.90;;;;;;2084800;28;20025;-70
2022/05/22 01:39:31;;;;;;;8.25;3.85;;;13.90;99.90;;;;;;2083148;28;20436;-70
2022/05/22 01:40:33;;;;;;;7.82;3.80;;;13.90;99.90;;;;;;2086800;28;20021;-70
2022/05/22 01:41:34;;;;;;;8.30;3.45;;;13.90;99.90;;;;;;2091720;28;20028;-70
2022/05/22 01:42:35;;;;;;;6.50;3.80;;;13.90;99.90;;;;;;2088382;28;20021;-70
2022/05/22 01:43:35;;;;;;;7.10;3.85;;;13.90;99.90;;;;;;2088421;28;20018;-70
2022/05/22 01:44:36;;;;;;;6.13;3.10;;;13.80;99.90;;;;;;2082162;28;20013;-70
2022/05/22 01:45:36;;;;;;;5.90;3.13;;;13.80;99.90;;;;;;2082498;28;20052;-70
2022/05/22 01:46:37;;;;;;;5.00;3.35;;;13.80;99.90;;;;;;2081259;28;20017;-70
2022/05/22 01:47:39;;;;;;;8.00;3.35;;;13.80;99.90;;;;;;2083194;28;20452;-70
2022/05/22 01:48:39;;;;;;;5.03;3.10;;;13.80;99.90;;;;;;2085943;28;20131;-70
2022/05/22 01:49:40;;;;;;;8.13;3.53;;;13.80;99.90;;;;;;2087106;28;20077;-70
2022/05/22 01:50:42;;;;;;;6.15;4.20;;;13.80;99.90;;;;;;2091178;28;20028;-70
2022/05/22 01:51:43;;;;;;;8.32;4.45;;;13.80;99.90;;;;;;2089954;28;20067;-70
2022/05/22 01:52:44;;;;;;;7.10;4.15;;;13.70;99.90;;;;;;2088092;28;20032;-70
2022/05/22 01:53:44;;;;;;;8.43;3.95;;;13.70;99.90;;;;;;2087021;28;20017;-70
2022/05/22 01:54:45;;;;;;;6.75;3.80;;;13.70;99.90;;;;;;2085209;28;20032;-70
2022/05/22 01:55:46;;;;;;;6.60;3.85;;;13.70;99.90;;;;;;2088259;28;20032;-70
2022/05/22 01:56:46;;;;;;;7.50;3.47;;;13.70;99.90;;;;;;2083961;28;20028;-70
2022/05/22 01:57:47;;;;;;;6.85;3.53;;;13.70;99.90;;;;;;2084596;28;20025;-70
2022/05/22 01:58:48;;;;;;;5.70;3.35;;;13.70;99.90;;;;;;2086956;28;20143;-70
2022/05/22 01:59:48;;;;;;;4.85;2.95;;;13.70;99.90;;;;;;2089040;28;20017;-70
2022/05/22 02:00:49;;;;;;;7.80;3.45;;;13.70;99.90;;;;;;2085925;28;20143;-70
2022/05/22 02:01:49;;;;;;;6.25;3.45;;;13.70;99.90;;;;;;2083092;28;20467;-70
2022/05/22 02:02:50;;;;;;;6.43;3.38;;;13.70;99.90;;;;;;2083814;28;20032;-70
2022/05/22 02:03:50;;;;;;;8.18;3.30;;;13.60;99.90;;;;;;2083495;28;20103;-70
2022/05/22 02:04:51;;;;;;;5.03;3.42;;;13.60;99.90;;;;;;2084650;28;20055;-70
2022/05/22 02:05:52;;;;;;;6.85;3.13;;;13.60;99.90;;;;;;2083104;28;20041;-70
2022/05/22 02:08:24;;;;;;;8.90;4.07;;;13.60;99.90;;;;;;2086811;28;20052;-70
2022/05/22 02:09:24;;;;;;;5.57;3.97;;;13.60;99.90;;;;;;2085305;28;20669;-70
2022/05/22 02:10:26;;;;;;;7.57;3.83;;;13.60;99.90;;;;;;2082784;28;20407;-70
2022/05/22 02:11:27;;;;;;;7.00;3.40;;;13.60;99.90;;;;;;2086296;28;20033;-70
2022/05/22 02:12:27;;;;;;;6.15;3.50;;;13.50;99.90;;;;;;2088181;28;20024;-70
2022/05/22 02:13:35;;;;;;;8.80;3.50;;;13.60;99.90;;;;;;2086050;28;20076;-70
2022/05/22 02:14:36;;;;;;;6.93;3.83;;;13.60;99.90;;;;;;2088992;28;20368;-70
2022/05/22 02:15:36;;;;;;;6.38;3.58;;;13.50;99.90;;;;;;2082107;28;20048;-70
2022/05/22 02:16:37;;;;;;;10.93;4.45;;;13.50;99.90;;;;;;2087794;28;20388;-70
2022/05/22 02:17:37;;;;;;;6.93;3.97;;;13.50;99.90;;;;;;2085260;28;20471;-70
2022/05/22 02:18:38;;;;;;;6.30;3.60;;;13.50;99.90;;;;;;2082767;28;20025;-70
2022/05/22 02:19:38;;;;;;;6.22;3.28;;;13.50;99.90;;;;;;2084770;28;20052;-70
2022/05/22 02:20:39;;;;;;;8.25;4.13;;;13.50;99.90;;;;;;2087569;28;20036;-70
2022/05/22 02:21:40;;;;;;;8.60;3.72;;;13.50;99.90;;;;;;2088138;28;20469;-70
2022/05/22 02:22:46;;;;;;;7.05;3.30;;;13.50;99.90;;;;;;2088490;28;20025;-70
2022/05/22 02:23:47;;;;;;;6.55;3.13;;;13.50;99.90;;;;;;2085748;28;20019;-70
2022/05/22 02:24:51;;;;;;;8.38;3.63;;;13.50;99.90;;;;;;2087216;28;20036;-70
2022/05/22 02:25:54;;;;;;;4.65;2.90;;;13.50;99.90;;;;;;2087266;28;20028;-70
2022/05/22 02:26:55;;;;;;;5.13;3.60;;;13.40;99.90;;;;;;2088760;28;20433;-70
2022/05/22 02:27:56;;;;;;;3.72;2.90;;;13.40;99.90;;;;;;2080739;28;20020;-70
2022/05/22 02:28:56;;;;;;;4.95;3.20;;;13.40;99.90;;;;;;2088761;28;20476;-70
2022/05/22 02:29:59;;;;;;;5.85;3.53;;;13.40;99.90;;;;;;2088330;28;20434;-70
2022/05/22 02:31:02;;;;;;;7.25;3.85;;;13.40;99.90;;;;;;2088269;28;20124;-70
2022/05/22 02:32:03;;;;;;;5.93;3.95;;;13.40;99.90;;;;;;2088269;28;20017;-70
2022/05/22 02:33:04;;;;;;;6.90;4.05;;;13.40;99.90;;;;;;2085034;28;20036;-70
2022/05/22 02:34:05;;;;;;;5.30;3.10;;;13.40;99.90;;;;;;2084772;28;20047;-70
2022/05/22 02:35:08;;;;;;;5.10;3.30;;;13.40;99.90;;;;;;2084795;28;20052;-70
2022/05/22 02:36:13;;;;;;;7.10;3.72;;;13.40;99.90;;;;;;2087657;28;20077;-70
2022/05/22 02:37:14;;;;;;;8.43;4.30;;;13.30;99.90;;;;;;2087787;28;20432;-70
2022/05/22 02:38:15;;;;;;;4.10;3.70;;;13.30;99.90;;;;;;2089394;28;20037;-70
2022/05/22 02:39:18;;;;;;;5.38;4.22;;;13.30;99.90;;;;;;2086062;28;20056;-70
2022/05/22 02:40:23;;;;;;;7.40;4.30;;;13.30;99.90;;;;;;2087021;28;20051;-70
2022/05/22 02:41:25;;;;;;;6.80;3.38;;;13.30;99.90;;;;;;2083572;28;20134;-70
2022/05/22 02:42:26;;;;;;;6.00;3.65;;;13.30;99.90;;;;;;2084184;28;20029;-70
2022/05/22 02:43:26;;;;;;;5.10;3.05;;;13.30;99.90;;;;;;2084796;28;20029;-70
2022/05/22 02:44:27;;;;;;;4.47;3.03;;;13.30;99.90;;;;;;2086079;28;20432;-70
2022/05/22 02:45:30;;;;;;;10.57;3.83;;;13.30;99.90;;;;;;2091160;28;20135;-70
2022/05/22 02:46:30;;;;;;;5.00;3.92;;;13.30;99.90;;;;;;2083205;28;20017;-70
2022/05/22 02:47:33;;;;;;;5.72;2.92;;;13.30;99.90;;;;;;2086964;28;20025;-70
2022/05/22 02:48:33;;;;;;;9.10;4.25;;;13.20;99.90;;;;;;2087724;28;20030;-70
2022/05/22 02:49:34;;;;;;;8.27;4.03;;;13.20;99.90;;;;;;2084769;28;20022;-70
2022/05/22 02:50:35;;;;;;;6.85;4.00;;;13.20;99.90;;;;;;2088879;28;20489;-70
2022/05/22 02:51:37;;;;;;;8.32;3.88;;;13.20;99.90;;;;;;2088562;28;20163;-70
2022/05/22 02:52:37;;;;;;;6.38;3.90;;;13.20;99.90;;;;;;2088226;28;20033;-70
2022/05/22 02:53:38;;;;;;;5.00;3.03;;;13.20;99.90;;;;;;2089493;28;20021;-70
2022/05/22 02:54:38;;;;;;;7.60;3.72;;;13.20;99.90;;;;;;2088402;28;20455;-70
2022/05/22 02:55:41;;;;;;;5.28;3.20;;;13.20;99.90;;;;;;2083879;28;20021;-70
2022/05/22 02:56:42;;;;;;;6.00;3.38;;;13.10;99.90;;;;;;2087186;28;20029;-70
2022/05/22 02:57:43;;;;;;;5.97;3.63;;;13.20;99.90;;;;;;2086027;28;20040;-70
2022/05/22 02:58:44;;;;;;;5.68;3.17;;;13.20;99.90;;;;;;2084187;28;20104;-70
2022/05/22 02:59:45;;;;;;;7.43;4.15;;;13.10;99.90;;;;;;2084541;28;20017;-70
2022/05/22 03:00:45;;;;;;;7.13;3.60;;;13.10;99.90;;;;;;2091203;28;20515;-70
2022/05/22 03:01:46;;;;;;;6.40;3.17;;;13.10;99.90;;;;;;2088400;28;20005;-70
2022/05/22 03:02:47;;;;;;;5.18;3.10;;;13.10;99.90;;;;;;2085121;28;20019;-70
2022/05/22 03:03:47;;;;;;;7.28;3.92;;;13.10;99.90;;;;;;2087943;28;20082;-70
2022/05/22 03:04:48;;;;;;;7.60;3.35;;;13.10;99.90;;;;;;2084089;28;20025;-70
2022/05/22 03:07:10;;;;;;;7.53;3.95;;;13.10;99.90;;;;;;2086437;28;20100;-70
2022/05/22 03:08:10;;;;;;;6.30;3.60;;;13.00;99.90;;;;;;2090087;28;20025;-70
2022/05/22 03:09:16;;;;;;;7.78;3.92;;;13.00;99.90;;;;;;2090074;28;20029;-70
2022/05/22 03:10:17;;;;;;;6.70;3.88;;;13.10;99.90;;;;;;2083840;28;20555;-70
2022/05/22 03:11:17;;;;;;;7.65;4.07;;;13.10;99.90;;;;;;2087065;28;20735;-70
2022/05/22 03:12:22;;;;;;;5.40;3.00;;;13.00;99.90;;;;;;2089658;28;20103;-70
2022/05/22 03:13:22;;;;;;;6.93;3.85;;;13.10;99.90;;;;;;2083855;28;20029;-70
2022/05/22 03:14:24;;;;;;;7.53;3.90;;;13.10;99.90;;;;;;2086362;28;20083;-70
2022/05/22 03:15:24;;;;;;;6.35;4.15;;;13.10;99.90;;;;;;2081611;28;20424;-70
2022/05/22 03:16:25;;;;;;;6.95;4.22;;;13.10;99.90;;;;;;2087389;28;20091;-70
2022/05/22 03:17:26;;;;;;;8.68;3.65;;;13.00;99.90;;;;;;2088640;28;20071;-70
2022/05/22 03:18:26;;;;;;;8.65;4.00;;;13.10;99.90;;;;;;2084298;28;20048;-70
2022/05/22 03:19:27;;;;;;;8.05;4.20;;;13.10;99.90;;;;;;2089381;28;20425;-70
2022/05/22 03:20:30;;;;;;;5.18;3.65;;;13.10;99.90;;;;;;2089055;28;20038;-70
2022/05/22 03:21:31;;;;;;;6.88;3.55;;;13.10;99.90;;;;;;2084592;28;20535;-70
2022/05/22 03:22:32;;;;;;;6.03;3.70;;;13.10;99.90;;;;;;2085899;28;20486;-70
2022/05/22 03:23:32;;;;;;;7.25;3.60;;;13.10;99.90;;;;;;2084963;28;20065;-70
2022/05/22 03:24:34;;;;;;;6.03;3.42;;;13.10;99.90;;;;;;2090170;28;20040;-70
2022/05/22 03:25:34;;;;;;;7.43;3.33;;;13.10;99.90;;;;;;2089514;28;20083;-70
2022/05/22 03:26:35;;;;;;;5.55;4.10;;;13.10;99.90;;;;;;2086157;28;20030;-70
2022/05/22 03:27:35;;;;;;;5.30;3.90;;;13.10;99.90;;;;;;2089505;28;20139;-70
2022/05/22 03:28:37;;;;;;;6.53;4.05;;;13.10;99.90;;;;;;2084881;28;20100;-70
2022/05/22 03:29:39;;;;;;;6.55;4.05;;;13.10;99.90;;;;;;2084128;28;20029;-70
2022/05/22 03:30:39;;;;;;;8.10;4.28;;;13.20;99.90;;;;;;2084493;28;20117;-70
2022/05/22 03:31:40;;;;;;;7.28;4.28;;;13.10;99.90;;;;;;2084481;28;20052;-70
2022/05/22 03:32:41;;;;;;;5.63;4.15;;;13.10;99.90;;;;;;2087478;28;20028;-70
2022/05/22 03:33:41;;;;;;;5.28;3.35;;;13.10;99.90;;;;;;2091388;28;20024;-70
2022/05/22 03:34:42;;;;;;;7.95;4.18;;;13.20;99.90;;;;;;2090258;28;20077;-70
2022/05/22 03:35:43;;;;;;;7.88;4.03;;;13.20;99.90;;;;;;2085556;28;20067;-70
2022/05/22 03:36:43;;;;;;;5.88;3.17;;;13.10;99.90;;;;;;2089222;28;20032;-70
2022/05/22 03:37:44;;;;;;;8.35;4.40;;;13.10;99.90;;;;;;2086603;28;20505;-70
2022/05/22 03:38:45;;;;;;;5.97;3.65;;;13.20;99.90;;;;;;2085006;28;20021;-70
2022/05/22 03:39:46;;;;;;;6.45;3.90;;;13.10;99.90;;;;;;2088361;28;20100;-70
2022/05/22 03:40:47;;;;;;;7.03;4.53;;;13.10;99.90;;;;;;2091747;28;20024;-70
2022/05/22 03:41:48;;;;;;;6.78;3.42;;;13.10;99.90;;;;;;2090483;28;20017;-70
2022/05/22 03:42:49;;;;;;;8.38;3.90;;;13.20;99.90;;;;;;2086853;28;20028;-70
2022/05/22 03:43:51;;;;;;;8.98;3.80;;;13.10;99.90;;;;;;2086391;28;20028;-70
2022/05/22 03:44:52;;;;;;;8.95;3.78;;;13.20;99.90;;;;;;2086687;28;20074;-70
2022/05/22 03:45:52;;;;;;;5.70;3.65;;;13.20;99.90;;;;;;2087924;28;20060;-70
2022/05/22 03:46:53;;;;;;;6.28;4.15;;;13.20;99.90;;;;;;2084650;28;20028;-70
2022/05/22 03:47:55;;;;;;;6.28;4.10;;;13.20;99.90;;;;;;2088941;28;20424;-70
2022/05/22 03:48:56;;;;;;;8.40;4.43;;;13.20;99.90;;;;;;2086571;28;20570;-70
2022/05/22 03:49:56;;;;;;;7.35;3.80;;;13.20;99.90;;;;;;2089014;28;20430;-70
2022/05/22 03:50:57;;;;;;;7.15;3.55;;;13.20;99.90;;;;;;2089069;28;20029;-70
2022/05/22 03:51:57;;;;;;;6.60;4.18;;;13.20;99.90;;;;;;2086701;28;20181;-70
2022/05/22 03:52:58;;;;;;;8.85;4.38;;;13.20;99.90;;;;;;2087144;28;20037;-70
2022/05/22 03:53:59;;;;;;;5.53;3.17;;;13.20;99.90;;;;;;2086610;28;20021;-70
2022/05/22 03:54:59;;;;;;;8.52;4.28;;;13.20;99.90;;;;;;2085853;28;20430;-70
2022/05/22 03:56:15;;;;;;;10.30;4.88;;;13.20;99.90;;;;;;2090740;28;20090;-70
2022/05/22 03:57:15;;;;;;;7.80;4.00;;;13.20;99.90;;;;;;2083919;28;20034;-70
2022/05/22 03:58:17;;;;;;;6.82;4.07;;;13.10;99.90;;;;;;2088592;28;20369;-70
2022/05/22 03:59:18;;;;;;;5.85;3.47;;;13.20;99.90;;;;;;2088077;28;20029;-70
2022/05/22 04:00:20;;;;;;;7.80;3.92;;;13.20;99.90;;;;;;2082433;28;20106;-70
2022/05/22 04:01:21;;;;;;;7.40;4.20;;;13.20;99.90;;;;;;2085596;28;20017;-70
2022/05/22 04:02:22;;;;;;;7.10;3.65;;;13.20;99.90;;;;;;2082282;28;20064;-70
2022/05/22 04:03:22;;;;;;;5.95;3.88;;;13.20;99.90;;;;;;2090801;28;20029;-70
2022/05/22 04:04:23;;;;;;;9.73;4.45;;;13.20;99.90;;;;;;2088731;28;20029;-70
2022/05/22 04:05:23;;;;;;;7.30;4.05;;;13.20;99.90;;;;;;2083430;28;20052;-70
2022/05/22 04:06:24;;;;;;;7.38;3.70;;;13.20;99.90;;;;;;2088740;28;20025;-70
2022/05/22 04:07:25;;;;;;;10.05;3.90;;;13.20;99.90;;;;;;2086316;28;20385;-70
2022/05/22 04:08:27;;;;;;;5.47;3.38;;;13.20;99.90;;;;;;2086431;28;20171;-70
2022/05/22 04:09:28;;;;;;;7.43;3.40;;;13.20;99.90;;;;;;2085591;28;20424;-70
2022/05/22 04:10:30;;;;;;;5.82;3.13;;;13.20;99.90;;;;;;2087424;28;20044;-70
2022/05/22 04:11:30;;;;;;;7.07;3.95;;;13.20;99.90;;;;;;2091209;28;20439;-70
2022/05/22 04:12:31;;;;;;;10.82;4.85;;;13.20;99.90;;;;;;2092063;28;20024;-70
2022/05/22 04:13:31;;;;;;;5.22;3.20;;;13.30;99.90;;;;;;2087283;28;20057;-70
2022/05/22 04:14:32;;;;;;;5.13;3.92;;;13.30;99.90;;;;;;2088406;28;20036;-70
2022/05/22 04:15:32;;;;;;;4.55;3.13;;;13.30;99.90;;;;;;2083886;28;20580;-70
2022/05/22 04:16:33;;;;;;;7.22;4.00;;;13.30;99.90;;;;;;2087109;28;20436;-70
2022/05/22 04:17:34;;;;;;;6.53;4.15;;;13.30;99.90;;;;;;2086487;28;20096;-70
2022/05/22 04:18:34;;;;;;;6.90;3.60;;;13.30;99.90;;;;;;2085190;28;20025;-70
2022/05/22 04:19:36;;;;;;;10.70;4.57;;;13.40;99.90;;;;;;2092394;28;20018;-70
2022/05/22 04:20:37;;;;;;;6.05;3.80;;;13.40;99.90;;;;;;2090871;28;20056;-70
2022/05/22 04:21:37;;;;;;;7.97;3.88;;;13.40;99.90;;;;;;2088934;28;20476;-70
2022/05/22 04:25:11;;;;;;;8.73;4.30;;;13.40;99.90;;;;;;2085839;28;20013;-70
2022/05/22 04:25:21;;;;;;;10.95;4.28;;;13.50;99.90;;;;;;2083669;28;20029;-70
2022/05/22 04:26:27;;;;;;;8.25;4.38;;;13.50;99.90;;;;;;2085059;28;20053;-70
2022/05/22 04:27:28;;;;;;;8.98;4.68;;;13.50;99.90;;;;;;2088505;28;20040;-70
2022/05/22 04:28:30;;;;;;;8.65;4.40;;;13.50;99.90;;;;;;2089115;28;20799;-70
2022/05/22 04:29:31;;;;;;;9.80;4.93;;;13.60;99.90;;;;;;2088890;28;20385;-71
2022/05/22 04:30:32;;;;;;;8.93;4.80;;;13.50;99.90;;;;;;2089028;28;20567;-70
2022/05/22 04:31:32;;;;;;;8.45;4.80;;;13.60;99.90;;;;;;2086318;28;20503;-70
2022/05/22 04:32:33;;;;;;;10.43;4.80;;;13.60;99.90;;;;;;2090142;28;20123;-70
2022/05/22 04:33:34;;;;;;;9.43;4.68;;;13.60;99.90;;;;;;2087497;28;20035;-70
2022/05/22 04:34:35;;;;;;;8.70;4.90;;;13.60;99.90;;;;;;2090781;28;20707;-70
2022/05/22 04:35:37;;;;;;;8.02;4.18;;;13.60;99.90;;;;;;2090573;28;20385;-70
2022/05/22 04:36:37;;;;;;;7.10;4.68;;;13.70;99.90;;;;;;2089829;28;20025;-70
2022/05/22 04:37:38;;;;;;;9.00;4.78;;;13.70;99.90;;;;;;2086933;28;20112;-70
2022/05/22 04:38:39;;;;;;;9.35;4.80;;;13.70;99.90;;;;;;2085661;28;20376;-70
2022/05/22 04:39:39;;;;;;;8.13;4.65;;;13.70;99.90;;;;;;2081774;28;20039;-70
2022/05/22 04:40:41;;;;;;;8.70;5.10;;;13.70;99.90;;;;;;2086479;28;20144;-70
2022/05/22 04:41:41;;;;;;;7.10;4.25;;;13.70;99.90;;;;;;2085877;28;20025;-70
2022/05/22 04:42:42;;;;;;;8.95;4.25;;;13.70;99.90;;;;;;2087576;28;20484;-70
2022/05/22 04:43:42;;;;;;;8.10;4.07;;;13.70;99.90;;;;;;2089602;28;20016;-70
2022/05/22 04:44:44;;;;;;;10.18;5.13;;;13.70;99.90;;;;;;2088179;28;20104;-70
2022/05/22 04:45:45;;;;;;;13.38;4.45;;;13.70;99.90;;;;;;2090309;28;20023;-70
2022/05/22 04:46:45;;;;;;;9.55;4.38;;;13.80;99.90;;;;;;2088906;28;20032;-70
2022/05/22 04:47:46;;;;;;;7.57;4.80;;;13.70;99.90;;;;;;2085874;28;20099;-70
2022/05/22 04:48:46;;;;;;;11.52;4.80;;;13.70;99.90;;;;;;2085311;28;20029;-70
2022/05/22 04:49:50;;;;;;;15.00;5.47;;;13.80;99.90;;;;;;2085344;28;20033;-70
2022/05/22 04:50:52;;;;;;;11.23;5.05;;;13.80;99.90;;;;;;2087123;28;20025;-70
2022/05/22 04:51:52;;;;;;;11.18;5.03;;;13.80;99.90;;;;;;2089440;28;20020;-70
2022/05/22 04:52:55;;;;;;;9.65;5.30;;;13.80;99.90;;;;;;2084704;28;20468;-70
2022/05/22 04:53:56;;;;;;;9.23;5.47;;;13.90;99.90;;;;;;2085921;28;20029;-70
2022/05/22 04:54:56;;;;;;;8.15;5.22;;;13.90;99.90;;;;;;2085831;28;20028;-70
2022/05/22 04:55:57;;;;;;;8.90;4.60;;;13.90;99.90;;;;;;2085603;28;20029;-70
2022/05/22 04:56:58;;;;;;;8.48;5.40;;;13.90;99.90;;;;;;2083355;28;20061;-70
2022/05/22 04:57:58;;;;;;;8.43;5.32;;;13.90;99.90;;;;;;2084840;28;20029;-70
2022/05/22 04:58:59;;;;;;;8.90;4.88;;;13.90;99.90;;;;;;2085156;28;20021;-70
2022/05/22 04:59:59;;;;;;;9.45;5.32;;;13.90;99.90;;;;;;2084509;28;20035;-70
2022/05/22 05:01:04;;;;;;;5.78;4.50;;;13.90;99.90;;;;;;2084365;28;20021;-70
2022/05/22 05:02:05;;;;;;;9.43;4.53;;;14.00;99.90;;;;;;2083264;28;20014;-70
2022/05/22 05:03:06;;;;;;;7.95;4.20;;;14.00;99.90;;;;;;2087000;28;20515;-70
2022/05/22 05:04:06;;;;;;;8.05;4.53;;;14.00;99.90;;;;;;2087037;28;20040;-70
2022/05/22 05:05:10;;;;;;;9.25;4.53;;;14.00;99.90;;;;;;2083605;28;20033;-70
2022/05/22 05:06:11;;;;;;;8.07;4.13;;;14.00;99.90;;;;;;2085691;28;20036;-70
2022/05/22 05:07:11;;;;;;;8.70;4.78;;;14.00;99.90;;;;;;2092448;28;20059;-70
2022/05/22 05:08:12;;;;;;;7.55;4.80;;;14.10;99.90;;;;;;2088645;28;20211;-70
2022/05/22 05:09:13;;;;;;;5.95;3.85;;;14.10;99.90;;;;;;2090012;28;20035;-70
2022/05/22 05:10:13;;;;;;;8.57;4.57;;;14.10;99.90;;;;;;2084523;28;20087;-70
2022/05/22 05:11:14;;;;;;;9.55;4.90;;;14.10;99.90;;;;;;2087326;28;20052;-70
2022/05/22 05:12:15;;;;;;;8.25;4.45;;;14.20;99.90;;;;;;2087313;28;20033;-70
2022/05/22 05:13:15;;;;;;;9.88;4.47;;;14.20;99.90;;;;;;2085344;28;20033;-70
2022/05/22 05:14:16;;;;;;;8.13;5.85;;;14.20;99.90;;;;;;2083847;28;20033;-70
2022/05/22 05:15:18;;;;;;;10.38;4.93;;;14.20;99.90;;;;;;2084533;28;20025;-70
2022/05/22 05:16:19;;;;;;;9.82;5.40;;;14.20;99.90;;;;;;2089496;28;20082;-70
2022/05/22 05:17:20;;;;;;;8.13;4.72;;;14.20;99.90;;;;;;2089625;28;20071;-70
2022/05/22 05:18:20;;;;;;;7.28;5.13;;;14.30;99.90;;;;;;2085304;28;20072;-70
2022/05/22 05:19:21;;;;;;;11.07;5.30;;;14.30;99.90;;;;;;2087858;28;20465;-70
2022/05/22 05:20:23;;;;;;;7.53;4.93;;;14.30;99.90;;;;;;2086514;28;20505;-70
2022/05/22 05:21:23;;;;;;;10.88;5.70;;;14.30;99.90;;;;;;2084847;28;20366;-70
2022/05/22 05:22:24;;;;;;;9.93;5.30;;;14.30;99.90;;;;;;2087896;28;20094;-70
2022/05/22 05:23:24;;;;;;;9.35;4.80;;;14.30;99.90;;;;;;2083998;28;20029;-70
2022/05/22 05:24:25;;;;;;;7.55;4.65;;;14.40;99.90;;;;;;2088664;28;20032;-70
2022/05/22 05:25:25;;;;;;;8.30;4.70;;;14.40;99.90;;;;;;2087145;28;20118;-70
2022/05/22 05:26:26;;;;;;;9.77;5.22;;;14.40;99.90;;;;;;2086304;28;20473;-70
2022/05/22 05:27:26;;;;;;;7.03;4.82;;;14.40;99.90;;;;;;2086810;28;20635;-70